Aurora, Ohio
Current Conditions -  °F | °C
As of 1:45 PM on Monday 22 Dec 2014 (Local Time) from KCGF Reporting Station
Broken Clouds Broken Clouds  
Wind Chill: 37°   Ceiling: 12000
Heat Index: 43°   Visibility: 10mi
Dew Point: 32°   Wind: 12mph
Humidity: 66%   Direction: 160°SSE
Pressure: 30"   Gusts: NA
Location:  41.31°N, 81.34°W
Report Text: KCGF 221845Z 16010KT 10SM SCT085 BKN120 06/00 A3000
Loading
Personal Weather Stations






























Interactive Weather Map New forecast layout! Learn more

10-Day Weather Forecast

Advertisements
Track Severe Weather on mobile